Home > Products > Valid Products > TAF

000
FTUS44 KHUN 021723
TAFHSV
TAF
KHSV 021723Z 0218/0318 35005KT P6SM FEW250
     FM030000 VRB03KT P6SM SKC
     FM031600 34005KT P6SM FEW250=



000
FTUS44 KHUN 021723
TAFMSL
TAF
KMSL 021723Z 0218/0318 34005KT P6SM FEW250
     FM030000 VRB03KT P6SM SKC
     FM031600 33005KT P6SM FEW250=



000
FTUS44 KHUN 021723
TAFHSV
TAF
KHSV 021723Z 0218/0318 35005KT P6SM FEW250
     FM030000 VRB03KT P6SM SKC
     FM031600 34005KT P6SM FEW250=



000
FTUS44 KHUN 021723
TAFMSL
TAF
KMSL 021723Z 0218/0318 34005KT P6SM FEW250
     FM030000 VRB03KT P6SM SKC
     FM031600 33005KT P6SM FEW250=



000
FTUS44 KHUN 021120
TAFMSL
TAF
KMSL 021120Z 0212/0312 03003KT P6SM FEW250
     FM021600 35007KT P6SM FEW250
     FM030000 VRB03KT P6SM SKC=



000
FTUS44 KHUN 021120
TAFMSL
TAF
KMSL 021120Z 0212/0312 03003KT P6SM FEW250
     FM021600 35007KT P6SM FEW250
     FM030000 VRB03KT P6SM SKC=



000
FTUS44 KHUN 021120
TAFMSL
TAF
KMSL 021120Z 0212/0312 03003KT P6SM FEW250
     FM021600 35007KT P6SM FEW250
     FM030000 VRB03KT P6SM SKC=



000
FTUS44 KHUN 021120
TAFHSV
TAF
KHSV 021120Z 0212/0312 04003KT P6SM FEW250
     FM021600 36007KT P6SM FEW250
     FM030000 VRB03KT P6SM SKC=



000
FTUS44 KHUN 021120
TAFHSV
TAF
KHSV 021120Z 0212/0312 04003KT P6SM FEW250
     FM021600 36007KT P6SM FEW250
     FM030000 VRB03KT P6SM SKC=



000
FTUS44 KHUN 021120
TAFHSV
TAF
KHSV 021120Z 0212/0312 04003KT P6SM FEW250
     FM021600 36007KT P6SM FEW250
     FM030000 VRB03KT P6SM SKC=



000
FTUS44 KHUN 021120
TAFMSL
TAF
KMSL 021120Z 0212/0312 03003KT P6SM FEW250
     FM021600 35007KT P6SM FEW250
     FM030000 VRB03KT P6SM SKC=



000
FTUS44 KHUN 020529
TAFMSL
TAF
KMSL 020529Z 0206/0306 VRB03KT P6SM SKC
     FM021600 33007KT P6SM SKC
     FM030000 VRB03KT P6SM SKC=



000
FTUS44 KHUN 020529
TAFHSV
TAF
KHSV 020529Z 0206/0306 VRB03KT P6SM SKC
     FM021600 33007KT P6SM FEW150
     FM030000 VRB03KT P6SM SKC=



000
FTUS44 KHUN 020529
TAFMSL
TAF
KMSL 020529Z 0206/0306 VRB03KT P6SM SKC
     FM021600 33007KT P6SM SKC
     FM030000 VRB03KT P6SM SKC=



000
FTUS44 KHUN 020529
TAFHSV
TAF
KHSV 020529Z 0206/0306 VRB03KT P6SM SKC
     FM021600 33007KT P6SM FEW150
     FM030000 VRB03KT P6SM SKC=



000
FTUS44 KHUN 012321
TAFHSV
TAF
KHSV 012321Z 0200/0224 VRB04KT P6SM SCT250
     FM021500 02005KT P6SM SKC=



000
FTUS44 KHUN 012321
TAFMSL
TAF
KMSL 012321Z 0200/0224 VRB03KT P6SM SKC
     FM021500 VRB04KT P6SM SKC=



000
FTUS44 KHUN 012321
TAFHSV
TAF
KHSV 012321Z 0200/0224 VRB04KT P6SM SCT250
     FM021500 02005KT P6SM SKC=



000
FTUS44 KHUN 012321
TAFMSL
TAF
KMSL 012321Z 0200/0224 VRB03KT P6SM SKC
     FM021500 VRB04KT P6SM SKC=



000
FTUS44 KHUN 012321
TAFMSL
TAF
KMSL 012321Z 0200/0224 VRB03KT P6SM SKC
     FM021500 VRB04KT P6SM SKC=



000
FTUS44 KHUN 012321
TAFHSV
TAF
KHSV 012321Z 0200/0224 VRB04KT P6SM SCT250
     FM021500 02005KT P6SM SKC=



000
FTUS44 KHUN 012321
TAFMSL
TAF
KMSL 012321Z 0200/0224 VRB03KT P6SM SKC
     FM021500 VRB04KT P6SM SKC=



000
FTUS44 KHUN 012321
TAFHSV
TAF
KHSV 012321Z 0200/0224 VRB04KT P6SM SCT250
     FM021500 02005KT P6SM SKC=



000
FTUS44 KHUN 011724
TAFHSV
TAF
KHSV 011724Z 0118/0218 03012G18KT P6SM SKC
     FM020000 VRB03KT P6SM SKC
     FM020600 02006KT P6SM SKC=



000
FTUS44 KHUN 011724
TAFMSL
TAF
KMSL 011724Z 0118/0218 03008KT P6SM SKC
     FM020000 VRB04KT P6SM SKC=



000
FTUS44 KHUN 011120
TAFHSV
TAF
KHSV 011120Z 0112/0212 36006KT P6SM FEW250
     FM011600 03010G15KT P6SM SKC
     FM020000 VRB03KT P6SM SKC=



000
FTUS44 KHUN 011120
TAFMSL
TAF
KMSL 011120Z 0112/0212 02005KT P6SM FEW250
     FM011600 03010G15KT P6SM SKC
     FM020000 VRB03KT P6SM SKC=



000
FTUS44 KHUN 011120
TAFHSV
TAF
KHSV 011120Z 0112/0212 36006KT P6SM FEW250
     FM011600 03010G15KT P6SM SKC
     FM020000 VRB03KT P6SM SKC=



000
FTUS44 KHUN 011120
TAFMSL
TAF
KMSL 011120Z 0112/0212 02005KT P6SM FEW250
     FM011600 03010G15KT P6SM SKC
     FM020000 VRB03KT P6SM SKC=



000
FTUS44 KHUN 011120
TAFMSL
TAF
KMSL 011120Z 0112/0212 02005KT P6SM FEW250
     FM011600 03010G15KT P6SM SKC
     FM020000 VRB03KT P6SM SKC=



000
FTUS44 KHUN 011120
TAFHSV
TAF
KHSV 011120Z 0112/0212 36006KT P6SM FEW250
     FM011600 03010G15KT P6SM SKC
     FM020000 VRB03KT P6SM SKC=



000
FTUS44 KHUN 011120
TAFMSL
TAF
KMSL 011120Z 0112/0212 02005KT P6SM FEW250
     FM011600 03010G15KT P6SM SKC
     FM020000 VRB03KT P6SM SKC=



000
FTUS44 KHUN 011120
TAFHSV
TAF
KHSV 011120Z 0112/0212 36006KT P6SM FEW250
     FM011600 03010G15KT P6SM SKC
     FM020000 VRB03KT P6SM SKC=



000
FTUS44 KHUN 010521
TAFMSL
TAF
KMSL 010521Z 0106/0206 02005KT P6SM SKC
     FM011800 03010KT P6SM SKC
     FM020000 VRB03KT P6SM SKC=



000
FTUS44 KHUN 010521
TAFMSL
TAF
KMSL 010521Z 0106/0206 02005KT P6SM SKC
     FM011800 03010KT P6SM SKC
     FM020000 VRB03KT P6SM SKC=



000
FTUS44 KHUN 010521
TAFHSV
TAF
KHSV 010521Z 0106/0206 36005KT P6SM SKC
     FM011800 03010KT P6SM SKC
     FM020000 VRB03KT P6SM SKC=



000
FTUS44 KHUN 010521
TAFHSV
TAF
KHSV 010521Z 0106/0206 36005KT P6SM SKC
     FM011800 03010KT P6SM SKC
     FM020000 VRB03KT P6SM SKC=



000
FTUS44 KHUN 010521
TAFMSL
TAF
KMSL 010521Z 0106/0206 02005KT P6SM SKC
     FM011800 03010KT P6SM SKC
     FM020000 VRB03KT P6SM SKC=



000
FTUS44 KHUN 312320
TAFMSL
TAF
KMSL 312320Z 0100/0124 02005KT P6SM SKC
     FM011500 03013KT P6SM SKC=



000
FTUS44 KHUN 312320
TAFMSL
TAF
KMSL 312320Z 0100/0124 02005KT P6SM SKC
     FM011500 03013KT P6SM SKC=



000
FTUS44 KHUN 312320
TAFHSV
TAF
KHSV 312320Z 0100/0124 02005KT P6SM SKC
     FM011500 03013KT P6SM SKC=



000
FTUS44 KHUN 312320
TAFHSV
TAF
KHSV 312320Z 0100/0124 02005KT P6SM SKC
     FM011500 03013KT P6SM SKC=



000
FTUS44 KHUN 311725
TAFMSL
TAF
KMSL 311725Z 3118/0118 04010G19KT P6SM SKC
     FM010000 01005KT P6SM SKC
     FM011200 06008KT P6SM SKC=



000
FTUS44 KHUN 311725
TAFHSV
TAF
KHSV 311725Z 3118/0118 04012G21KT P6SM SKC
     FM010000 02005KT P6SM SKC
     FM011500 05010G15KT P6SM SKC=



000
FTUS44 KHUN 311725
TAFHSV
TAF
KHSV 311725Z 3118/0118 04012G21KT P6SM SKC
     FM010000 02005KT P6SM SKC
     FM011500 05010G15KT P6SM SKC=



000
FTUS44 KHUN 311725
TAFHSV
TAF
KHSV 311725Z 3118/0118 04012G21KT P6SM SKC
     FM010000 02005KT P6SM SKC
     FM011500 05010G15KT P6SM SKC=



000
FTUS44 KHUN 311725
TAFMSL
TAF
KMSL 311725Z 3118/0118 04010G19KT P6SM SKC
     FM010000 01005KT P6SM SKC
     FM011200 06008KT P6SM SKC=



000
FTUS44 KHUN 311725
TAFMSL
TAF
KMSL 311725Z 3118/0118 04010G19KT P6SM SKC
     FM010000 01005KT P6SM SKC
     FM011200 06008KT P6SM SKC=



000
FTUS44 KHUN 311725
TAFMSL
TAF
KMSL 311725Z 3118/0118 04010G19KT P6SM SKC
     FM010000 01005KT P6SM SKC
     FM011200 06008KT P6SM SKC=



000
FTUS44 KHUN 311725
TAFHSV
TAF
KHSV 311725Z 3118/0118 04012G21KT P6SM SKC
     FM010000 02005KT P6SM SKC
     FM011500 05010G15KT P6SM SKC=



000
FTUS44 KHUN 311139
TAFHSV
TAF
KHSV 311139Z 3112/0112 36005KT P6SM FEW250
     FM311400 03010KT P6SM SKC
     FM311700 03012G18KT P6SM SKC
     FM010000 02007KT P6SM SKC=



000
FTUS44 KHUN 311139
TAFMSL
TAF
KMSL 311139Z 3112/0112 36005KT P6SM FEW250
     FM311400 03010KT P6SM SKC
     FM311800 03012G17KT P6SM SKC
     FM010000 02007KT P6SM SKC=



000
FTUS44 KHUN 311139
TAFHSV
TAF
KHSV 311139Z 3112/0112 36005KT P6SM FEW250
     FM311400 03010KT P6SM SKC
     FM311700 03012G18KT P6SM SKC
     FM010000 02007KT P6SM SKC=



000
FTUS44 KHUN 311139
TAFMSL
TAF
KMSL 311139Z 3112/0112 36005KT P6SM FEW250
     FM311400 03010KT P6SM SKC
     FM311800 03012G17KT P6SM SKC
     FM010000 02007KT P6SM SKC=



000
FTUS44 KHUN 310520
TAFMSL
TAF
KMSL 310520Z 3106/0106 36005KT P6SM SKC
     FM311400 05010KT P6SM SKC
     FM010000 VRB03KT P6SM SKC=



000
FTUS44 KHUN 310520
TAFMSL
TAF
KMSL 310520Z 3106/0106 36005KT P6SM SKC
     FM311400 05010KT P6SM SKC
     FM010000 VRB03KT P6SM SKC=



000
FTUS44 KHUN 310520
TAFMSL
TAF
KMSL 310520Z 3106/0106 36005KT P6SM SKC
     FM311400 05010KT P6SM SKC
     FM010000 VRB03KT P6SM SKC=



000
FTUS44 KHUN 310520
TAFMSL
TAF
KMSL 310520Z 3106/0106 36005KT P6SM SKC
     FM311400 05010KT P6SM SKC
     FM010000 VRB03KT P6SM SKC=



000
FTUS44 KHUN 310520
TAFHSV
TAF
KHSV 310520Z 3106/0106 36005KT P6SM SKC
     FM311400 05010KT P6SM SKC
     FM010000 VRB03KT P6SM SKC=



000
FTUS44 KHUN 310520
TAFHSV
TAF
KHSV 310520Z 3106/0106 36005KT P6SM SKC
     FM311400 05010KT P6SM SKC
     FM010000 VRB03KT P6SM SKC=



000
FTUS44 KHUN 310520
TAFHSV
TAF
KHSV 310520Z 3106/0106 36005KT P6SM SKC
     FM311400 05010KT P6SM SKC
     FM010000 VRB03KT P6SM SKC=



000
FTUS44 KHUN 310520
TAFHSV
TAF
KHSV 310520Z 3106/0106 36005KT P6SM SKC
     FM311400 05010KT P6SM SKC
     FM010000 VRB03KT P6SM SKC=



000
FTUS44 KHUN 302320
TAFHSV
TAF
KHSV 302320Z 3100/3124 36005KT P6SM SKC
     FM311400 05010KT P6SM SKC
     FM311800 02015G25KT P6SM SKC=



000
FTUS44 KHUN 302320
TAFMSL
TAF
KMSL 302320Z 3100/3124 36005KT P6SM SKC
     FM311400 05010KT P6SM SKC
     FM311800 02015G25KT P6SM SKC=



000
FTUS44 KHUN 302320
TAFHSV
TAF
KHSV 302320Z 3100/3124 36005KT P6SM SKC
     FM311400 05010KT P6SM SKC
     FM311800 02015G25KT P6SM SKC=



000
FTUS44 KHUN 302320
TAFMSL
TAF
KMSL 302320Z 3100/3124 36005KT P6SM SKC
     FM311400 05010KT P6SM SKC
     FM311800 02015G25KT P6SM SKC=



    US Dept of Commerce
    National Oceanic and Atmospheric Administration
    National Weather Service
    1325 East West Highway
    Silver Spring, MD 20910
    Page Author: NWS Internet Services Team
Disclaimer
Information Quality
Credits
Glossary
Privacy Policy
Freedom of Information Act (FOIA)
About Us
Career Opportunities